createdAt,value
2022-12-23T00:00:00.183Z,1.95
2022-12-23T00:01:05.756Z,1.99
2022-12-23T00:02:08.748Z,1.94
2022-12-23T00:03:11.594Z,1.91
2022-12-23T00:04:14.067Z,1.87
2022-12-23T00:05:16.580Z,1.91
2022-12-23T00:06:20.390Z,1.95
2022-12-23T00:07:22.719Z,1.91
2022-12-23T00:08:26.278Z,1.89
2022-12-23T00:09:28.699Z,1.88
2022-12-23T00:10:31.098Z,1.88
2022-12-23T00:11:33.965Z,1.87
2022-12-23T00:12:54.996Z,1.87
2022-12-23T00:14:21.104Z,1.88
2022-12-23T00:15:24.302Z,1.90
2022-12-23T00:16:26.796Z,1.90
2022-12-23T00:17:29.299Z,1.86
2022-12-23T00:18:32.406Z,1.88
2022-12-23T00:19:34.848Z,1.87
2022-12-23T00:20:37.230Z,1.93
2022-12-23T00:21:39.598Z,1.91
2022-12-23T00:23:00.781Z,1.88
2022-12-23T00:24:03.243Z,1.91
2022-12-23T00:25:05.954Z,1.92
2022-12-23T00:26:17.553Z,1.91
2022-12-23T00:27:20.724Z,1.92
2022-12-23T00:28:25.400Z,1.94
2022-12-23T00:29:27.887Z,1.93
2022-12-23T00:30:30.401Z,1.93
2022-12-23T00:31:33.012Z,1.92
2022-12-23T00:32:35.936Z,1.95
2022-12-23T00:33:41.196Z,1.96
2022-12-23T00:34:43.527Z,1.97
2022-12-23T00:35:46.668Z,1.96
2022-12-23T00:36:49.304Z,1.95
2022-12-23T00:37:51.769Z,1.97
2022-12-23T00:39:14.310Z,1.95
2022-12-23T00:40:35.459Z,1.98
2022-12-23T00:41:57.095Z,2.00
2022-12-23T00:43:03.127Z,1.99
2022-12-23T00:44:05.893Z,2.00
2022-12-23T00:45:17.827Z,1.98
2022-12-23T00:46:20.493Z,1.99
2022-12-23T00:47:41.129Z,1.97
2022-12-23T00:49:07.118Z,1.97
2022-12-23T00:50:10.198Z,1.98
2022-12-23T00:51:12.643Z,2.00
2022-12-23T00:52:18.360Z,1.98
2022-12-23T00:53:21.633Z,2.00
2022-12-23T00:54:24.074Z,2.02
2022-12-23T00:55:26.721Z,2.00
2022-12-23T00:56:29.300Z,2.00
2022-12-23T00:57:31.745Z,2.01
2022-12-23T00:58:37.593Z,2.02
2022-12-23T00:59:39.942Z,2.15
2022-12-23T01:01:01.226Z,2.15
2022-12-23T01:02:22.791Z,2.10
2022-12-23T01:03:44.285Z,2.09
2022-12-23T01:05:05.339Z,2.08
2022-12-23T01:06:08.117Z,2.07
2022-12-23T01:07:11.068Z,2.06
2022-12-23T01:08:13.611Z,2.04
2022-12-23T01:09:16.733Z,2.05
2022-12-23T01:10:19.234Z,2.05
2022-12-23T01:11:21.661Z,2.06
2022-12-23T01:12:24.112Z,2.08
2022-12-23T01:13:26.561Z,2.07
2022-12-23T01:14:29.945Z,2.08
2022-12-23T01:15:32.884Z,2.06
2022-12-23T01:16:38.800Z,2.09
2022-12-23T01:17:41.408Z,2.09
2022-12-23T01:18:46.730Z,2.09
2022-12-23T01:19:49.220Z,2.12
2022-12-23T01:20:51.913Z,2.12
2022-12-23T01:21:54.696Z,2.10
2022-12-23T01:22:57.263Z,2.08
2022-12-23T01:24:00.423Z,2.09
2022-12-23T01:25:03.001Z,2.07
2022-12-23T01:26:07.835Z,2.06
2022-12-23T01:27:10.704Z,2.05
2022-12-23T01:28:13.213Z,2.08
2022-12-23T01:29:15.594Z,2.10
2022-12-23T01:30:18.232Z,2.11
2022-12-23T01:31:20.870Z,2.10
2022-12-23T01:32:23.262Z,2.08
2022-12-23T01:33:26.006Z,2.06
2022-12-23T01:34:34.286Z,2.07
2022-12-23T01:35:38.968Z,2.10
2022-12-23T01:36:41.547Z,2.11
2022-12-23T01:37:43.852Z,2.09
2022-12-23T01:38:46.520Z,2.11
2022-12-23T01:39:49.108Z,2.11
2022-12-23T01:40:51.486Z,2.09
2022-12-23T01:42:12.350Z,2.11
2022-12-23T01:43:20.081Z,2.10
2022-12-23T01:44:46.914Z,2.10
2022-12-23T01:45:50.213Z,2.09
2022-12-23T01:46:52.879Z,2.08
2022-12-23T01:48:03.789Z,2.07
2022-12-23T01:49:06.107Z,2.06
2022-12-23T01:50:45.061Z,2.17
2022-12-23T01:51:47.614Z,2.17
2022-12-23T01:53:06.833Z,2.14
2022-12-23T01:54:09.925Z,2.16
2022-12-23T01:55:14.178Z,2.14
2022-12-23T01:56:24.775Z,2.17
2022-12-23T01:57:29.844Z,2.15
2022-12-23T01:58:44.479Z,2.14
2022-12-23T02:00:05.518Z,2.17
2022-12-23T02:01:27.051Z,2.15
2022-12-23T02:02:49.316Z,2.13
2022-12-23T02:03:57.882Z,2.13
2022-12-23T02:05:00.710Z,2.13
2022-12-23T02:06:23.029Z,2.10
2022-12-23T02:07:45.397Z,2.10
2022-12-23T02:09:06.507Z,2.09
2022-12-23T02:10:09.582Z,2.11
2022-12-23T02:11:53.783Z,2.12
2022-12-23T02:13:19.091Z,2.08
2022-12-23T02:15:17.822Z,2.08
2022-12-23T02:16:20.995Z,2.09
2022-12-23T02:17:26.466Z,2.08
2022-12-23T02:18:45.826Z,2.08
2022-12-23T02:19:54.182Z,2.10
2022-12-23T02:21:20.830Z,2.09
2022-12-23T02:22:38.904Z,2.09
2022-12-23T02:23:44.290Z,2.10
2022-12-23T02:25:14.597Z,2.09
2022-12-23T02:26:54.697Z,2.11
2022-12-23T02:28:15.822Z,2.10
2022-12-23T02:29:31.869Z,2.09
2022-12-23T02:30:43.285Z,2.10
2022-12-23T02:31:58.751Z,2.10
2022-12-23T02:33:35.342Z,2.08
2022-12-23T02:35:01.199Z,2.09
2022-12-23T02:36:18.756Z,2.09
2022-12-23T02:37:27.537Z,2.10
2022-12-23T02:38:39.215Z,2.09
2022-12-23T02:39:57.338Z,2.06
2022-12-23T02:41:08.534Z,2.07
2022-12-23T02:42:18.332Z,2.07
2022-12-23T02:43:47.094Z,2.09
2022-12-23T02:45:13.798Z,2.09
2022-12-23T02:46:36.631Z,2.11
2022-12-23T02:47:51.323Z,2.11
2022-12-23T02:48:53.583Z,2.11
2022-12-23T02:49:59.271Z,2.11
2022-12-23T02:51:04.274Z,2.10
2022-12-23T02:52:13.440Z,2.10
2022-12-23T02:53:30.746Z,2.08
2022-12-23T02:54:39.332Z,2.10
2022-12-23T02:55:45.152Z,2.12
2022-12-23T02:56:51.225Z,2.12
2022-12-23T02:57:56.087Z,2.10
2022-12-23T02:59:23.580Z,2.13
2022-12-23T03:00:26.108Z,2.13
2022-12-23T03:01:32.155Z,2.13
2022-12-23T03:02:38.733Z,2.13
2022-12-23T03:03:42.762Z,2.13
2022-12-23T03:04:45.123Z,2.13
2022-12-23T03:05:50.049Z,2.13
2022-12-23T03:06:54.741Z,2.14
2022-12-23T03:08:02.802Z,2.12
2022-12-23T03:09:06.722Z,2.11
2022-12-23T03:10:20.956Z,2.14
2022-12-23T03:11:40.398Z,2.14
2022-12-23T03:13:26.202Z,2.15
2022-12-23T03:14:31.488Z,2.15
2022-12-23T03:15:47.436Z,2.15
2022-12-23T03:16:52.430Z,2.16
2022-12-23T03:18:05.001Z,2.15
2022-12-23T03:19:32.548Z,2.15
2022-12-23T03:20:47.950Z,2.15
2022-12-23T03:22:08.787Z,2.15
2022-12-23T03:23:20.229Z,2.15
2022-12-23T03:24:45.024Z,2.15
2022-12-23T03:26:12.584Z,2.18
2022-12-23T03:27:43.433Z,2.19
2022-12-23T03:29:09.008Z,2.19
2022-12-23T03:30:15.286Z,2.20
2022-12-23T03:31:27.487Z,2.24
2022-12-23T03:32:35.591Z,2.29
2022-12-23T03:33:42.626Z,2.25
2022-12-23T03:34:50.298Z,2.23
2022-12-23T03:35:58.452Z,2.23
2022-12-23T03:37:04.819Z,2.22
2022-12-23T03:38:10.436Z,2.25
2022-12-23T03:39:17.653Z,2.25
2022-12-23T03:40:25.369Z,2.28
2022-12-23T03:41:39.954Z,2.27
2022-12-23T03:42:46.766Z,2.34
2022-12-23T03:44:13.738Z,2.33
2022-12-23T03:45:39.283Z,2.31
2022-12-23T03:47:08.914Z,2.30
2022-12-23T03:48:29.081Z,2.27
2022-12-23T03:49:36.016Z,2.27
2022-12-23T03:50:40.269Z,2.24
2022-12-23T03:51:51.400Z,2.25
2022-12-23T03:53:01.487Z,2.24
2022-12-23T03:54:10.860Z,2.27
2022-12-23T03:55:22.420Z,2.28
2022-12-23T03:56:31.190Z,2.28
2022-12-23T03:57:45.076Z,2.28
2022-12-23T03:58:53.823Z,2.30
2022-12-23T03:59:56.462Z,2.31
2022-12-23T04:01:22.754Z,2.28
2022-12-23T04:02:53.429Z,2.27
2022-12-23T04:04:17.932Z,2.26
2022-12-23T04:05:23.487Z,2.24
2022-12-23T04:06:32.042Z,2.23
2022-12-23T04:07:53.137Z,2.23
2022-12-23T04:08:57.929Z,2.25
2022-12-23T04:10:00.980Z,2.25
2022-12-23T04:11:04.031Z,2.26
2022-12-23T04:12:08.130Z,2.23
2022-12-23T04:13:10.751Z,2.23
2022-12-23T04:14:18.524Z,2.21
2022-12-23T04:15:26.056Z,2.21
2022-12-23T04:16:29.563Z,2.21
2022-12-23T04:17:33.093Z,2.22
2022-12-23T04:18:36.949Z,2.23
2022-12-23T04:19:39.396Z,2.22
2022-12-23T04:20:42.015Z,2.21
2022-12-23T04:21:44.475Z,2.21
2022-12-23T04:22:47.072Z,2.21
2022-12-23T04:23:49.544Z,2.23
2022-12-23T04:24:51.956Z,2.22
2022-12-23T04:25:54.391Z,2.21
2022-12-23T04:26:56.809Z,2.24
2022-12-23T04:27:59.255Z,2.23
2022-12-23T04:29:02.170Z,2.22
2022-12-23T04:30:06.116Z,2.23
2022-12-23T04:31:08.594Z,2.22
2022-12-23T04:32:11.531Z,2.21
2022-12-23T04:33:13.899Z,2.24
2022-12-23T04:34:16.381Z,2.23
2022-12-23T04:35:19.011Z,2.21
2022-12-23T04:36:21.600Z,2.22
2022-12-23T04:37:23.947Z,2.21
2022-12-23T04:38:28.439Z,2.19
2022-12-23T04:39:30.902Z,2.19
2022-12-23T04:40:33.389Z,2.21
2022-12-23T04:41:35.710Z,2.21
2022-12-23T04:42:38.104Z,2.21
2022-12-23T04:43:40.690Z,2.18
2022-12-23T04:44:43.171Z,2.22
2022-12-23T04:45:51.598Z,2.20
2022-12-23T04:46:54.008Z,2.22
2022-12-23T04:47:56.492Z,2.22
2022-12-23T04:49:00.802Z,2.22
2022-12-23T04:50:03.916Z,2.22
2022-12-23T04:51:09.853Z,2.20
2022-12-23T04:52:12.366Z,2.19
2022-12-23T04:53:14.867Z,2.20
2022-12-23T04:54:17.456Z,2.20
2022-12-23T04:55:19.931Z,2.20
2022-12-23T04:56:23.127Z,2.20
2022-12-23T04:57:25.825Z,2.19
2022-12-23T04:58:32.465Z,2.20
2022-12-23T04:59:34.964Z,2.20
2022-12-23T05:00:40.068Z,2.18
2022-12-23T05:01:43.444Z,2.20
2022-12-23T05:02:46.117Z,2.19
2022-12-23T05:03:48.567Z,2.19
2022-12-23T05:04:50.920Z,2.20
2022-12-23T05:05:53.269Z,2.20
2022-12-23T05:06:55.729Z,2.20
2022-12-23T05:08:04.404Z,2.19
2022-12-23T05:09:07.094Z,2.19
2022-12-23T05:10:10.634Z,2.21
2022-12-23T05:11:13.458Z,2.22
2022-12-23T05:12:15.837Z,2.19
2022-12-23T05:13:18.313Z,2.20
2022-12-23T05:14:21.010Z,2.21
2022-12-23T05:15:23.453Z,2.19
2022-12-23T05:16:25.861Z,2.19
2022-12-23T05:17:28.444Z,2.17
2022-12-23T05:18:35.217Z,2.20
2022-12-23T05:19:37.752Z,2.18
2022-12-23T05:20:40.940Z,2.20
2022-12-23T05:21:43.704Z,2.19
2022-12-23T05:22:46.079Z,2.20
2022-12-23T05:23:48.479Z,2.20
2022-12-23T05:24:50.930Z,2.21
2022-12-23T05:25:54.406Z,2.20
2022-12-23T05:26:59.978Z,2.19
2022-12-23T05:28:04.187Z,2.19
2022-12-23T05:29:07.634Z,2.22
2022-12-23T05:30:10.717Z,2.21
2022-12-23T05:31:17.633Z,2.22
2022-12-23T05:32:20.239Z,2.21
2022-12-23T05:33:22.614Z,2.20
2022-12-23T05:34:25.103Z,2.20
2022-12-23T05:35:28.679Z,2.21
2022-12-23T05:36:31.182Z,2.21
2022-12-23T05:37:33.724Z,2.20
2022-12-23T05:38:37.467Z,2.20
2022-12-23T05:39:40.115Z,2.21
2022-12-23T05:40:42.519Z,2.19
2022-12-23T05:41:46.020Z,2.19
2022-12-23T05:42:48.484Z,2.20
2022-12-23T05:43:50.942Z,2.18
2022-12-23T05:44:53.429Z,2.17
2022-12-23T05:45:55.955Z,2.17
2022-12-23T05:46:58.374Z,2.19
2022-12-23T05:48:01.015Z,2.20
2022-12-23T05:49:03.760Z,2.22
2022-12-23T05:50:06.915Z,2.21
2022-12-23T05:51:09.417Z,2.20
2022-12-23T05:52:11.862Z,2.21
2022-12-23T05:53:14.338Z,2.21
2022-12-23T05:54:16.755Z,2.22
2022-12-23T05:55:19.139Z,2.22
2022-12-23T05:56:21.666Z,2.23
2022-12-23T05:57:24.149Z,2.21
2022-12-23T05:58:28.252Z,2.24
2022-12-23T05:59:32.813Z,2.24
2022-12-23T06:00:37.109Z,2.24
2022-12-23T06:01:39.701Z,2.21
2022-12-23T06:02:43.085Z,2.25
2022-12-23T06:03:50.679Z,2.23
2022-12-23T06:04:53.478Z,2.25
2022-12-23T06:05:56.426Z,2.25
2022-12-23T06:06:59.243Z,2.25
2022-12-23T06:08:01.745Z,2.25
2022-12-23T06:09:05.556Z,2.26
2022-12-23T06:10:10.030Z,2.27
2022-12-23T06:11:13.348Z,2.28
2022-12-23T06:12:15.800Z,2.29
2022-12-23T06:13:18.267Z,2.29
2022-12-23T06:14:26.883Z,2.37
2022-12-23T06:15:31.195Z,2.32
2022-12-23T06:16:34.190Z,2.33
2022-12-23T06:17:36.877Z,2.32
2022-12-23T06:18:41.377Z,2.29
2022-12-23T06:19:44.233Z,2.32
2022-12-23T06:20:47.798Z,2.31
2022-12-23T06:21:52.361Z,2.28
2022-12-23T06:22:59.363Z,2.29
2022-12-23T06:24:03.753Z,2.28
2022-12-23T06:25:06.681Z,2.28
2022-12-23T06:26:09.097Z,2.28
2022-12-23T06:27:11.478Z,2.27
2022-12-23T06:28:23.160Z,2.25
2022-12-23T06:29:25.763Z,2.28
2022-12-23T06:30:28.252Z,2.26
2022-12-23T06:31:30.819Z,2.26
2022-12-23T06:32:38.240Z,2.26
2022-12-23T06:33:41.073Z,2.27
2022-12-23T06:34:43.701Z,2.27
2022-12-23T06:35:46.121Z,2.25
2022-12-23T06:36:48.971Z,2.28
2022-12-23T06:37:53.582Z,2.24
2022-12-23T06:38:58.044Z,2.27
2022-12-23T06:40:00.666Z,2.28
2022-12-23T06:41:03.297Z,2.27
2022-12-23T06:42:06.335Z,2.28
2022-12-23T06:43:10.764Z,2.28
2022-12-23T06:44:13.301Z,2.29
2022-12-23T06:45:15.752Z,2.30
2022-12-23T06:46:18.150Z,2.30
2022-12-23T06:47:20.787Z,2.29
2022-12-23T06:48:23.713Z,2.30
2022-12-23T06:49:26.441Z,2.32
2022-12-23T06:50:28.890Z,2.30
2022-12-23T06:51:31.743Z,2.33
2022-12-23T06:52:34.277Z,2.34
2022-12-23T06:53:37.085Z,2.33
2022-12-23T06:54:39.776Z,2.35
2022-12-23T06:55:42.204Z,2.36
2022-12-23T06:56:44.593Z,2.35
2022-12-23T06:57:46.997Z,2.36
2022-12-23T06:58:52.658Z,2.36
2022-12-23T06:59:55.030Z,2.37
2022-12-23T07:00:57.479Z,2.38
2022-12-23T07:02:00.130Z,2.38
2022-12-23T07:03:02.778Z,2.39
2022-12-23T07:04:05.606Z,2.39
2022-12-23T07:05:08.754Z,2.42
2022-12-23T07:06:11.281Z,2.42
2022-12-23T07:07:13.700Z,2.42
2022-12-23T07:08:16.807Z,2.44
2022-12-23T07:09:19.252Z,2.47
2022-12-23T07:10:21.717Z,2.47
2022-12-23T07:11:24.536Z,2.47
2022-12-23T07:12:27.243Z,2.47
2022-12-23T07:13:30.030Z,2.51
2022-12-23T07:14:32.421Z,2.52
2022-12-23T07:15:35.839Z,2.53
2022-12-23T07:16:38.715Z,2.53
2022-12-23T07:17:41.397Z,2.53
2022-12-23T07:18:44.306Z,2.57
2022-12-23T07:19:46.777Z,2.56
2022-12-23T07:20:50.613Z,2.57
2022-12-23T07:21:53.211Z,2.53
2022-12-23T07:22:57.277Z,2.54
2022-12-23T07:23:59.812Z,2.56
2022-12-23T07:25:02.232Z,2.55
2022-12-23T07:26:04.865Z,2.56
2022-12-23T07:27:07.537Z,2.53
2022-12-23T07:28:09.973Z,2.55
2022-12-23T07:29:12.477Z,2.57
2022-12-23T07:30:15.214Z,2.57
2022-12-23T07:31:17.891Z,2.56
2022-12-23T07:32:20.300Z,2.59
2022-12-23T07:33:22.828Z,2.59
2022-12-23T07:34:25.281Z,2.59
2022-12-23T07:35:29.005Z,2.61
2022-12-23T07:36:31.683Z,2.61
2022-12-23T07:37:34.406Z,2.59
2022-12-23T07:38:37.541Z,2.59
2022-12-23T07:39:40.094Z,2.59
2022-12-23T07:40:42.588Z,2.60
2022-12-23T07:41:44.931Z,2.60
2022-12-23T07:42:50.163Z,2.60
2022-12-23T07:43:52.459Z,2.63
2022-12-23T07:44:55.016Z,2.67
2022-12-23T07:46:00.414Z,2.71
2022-12-23T07:47:03.924Z,2.71
2022-12-23T07:48:06.857Z,2.71
2022-12-23T07:49:10.286Z,2.73
2022-12-23T07:50:13.272Z,2.75
2022-12-23T07:51:16.131Z,2.75
2022-12-23T07:52:18.705Z,2.74
2022-12-23T07:53:21.028Z,2.76
2022-12-23T07:54:23.441Z,2.74
2022-12-23T07:55:25.916Z,2.76
2022-12-23T07:56:29.488Z,2.87
2022-12-23T07:57:38.075Z,2.92
2022-12-23T07:58:49.963Z,2.85
2022-12-23T07:59:52.996Z,2.82
2022-12-23T08:01:05.821Z,2.90
2022-12-23T08:02:10.820Z,2.92
2022-12-23T08:03:13.828Z,2.92
2022-12-23T08:04:16.416Z,2.89
2022-12-23T08:05:19.111Z,2.91
2022-12-23T08:06:21.625Z,2.94
2022-12-23T08:07:23.980Z,2.97
2022-12-23T08:08:26.650Z,2.97
2022-12-23T08:09:29.367Z,2.94
2022-12-23T08:10:31.890Z,2.95
2022-12-23T08:11:34.451Z,2.93
2022-12-23T08:12:36.893Z,3.03
2022-12-23T08:13:41.044Z,3.02
2022-12-23T08:14:43.399Z,2.97
2022-12-23T08:15:48.643Z,2.98
2022-12-23T08:16:51.184Z,3.04
2022-12-23T08:17:56.149Z,2.99
2022-12-23T08:18:58.878Z,2.99
2022-12-23T08:20:08.656Z,3.00
2022-12-23T08:21:11.267Z,3.04
2022-12-23T08:22:13.987Z,3.01
2022-12-23T08:23:21.385Z,2.97
2022-12-23T08:24:26.709Z,3.05
2022-12-23T08:25:29.536Z,3.07
2022-12-23T08:26:32.935Z,3.02
2022-12-23T08:27:35.991Z,2.99
2022-12-23T08:30:01.398Z,3.03
2022-12-23T08:31:10.040Z,3.05
2022-12-23T08:32:12.595Z,3.04
2022-12-23T08:33:14.962Z,3.02
2022-12-23T08:34:17.701Z,3.02
2022-12-23T08:35:20.115Z,3.23
2022-12-23T08:36:28.930Z,3.14
2022-12-23T08:37:31.230Z,3.18
2022-12-23T08:38:37.305Z,3.16
2022-12-23T08:39:39.601Z,3.20
2022-12-23T08:40:42.260Z,3.17
2022-12-23T08:41:47.586Z,3.17
2022-12-23T08:42:56.327Z,3.14
2022-12-23T08:43:58.910Z,3.18
2022-12-23T08:45:01.361Z,3.18
2022-12-23T08:46:04.501Z,3.18
2022-12-23T08:47:07.111Z,3.21
2022-12-23T08:48:09.858Z,3.22
2022-12-23T08:49:12.881Z,3.24
2022-12-23T08:50:16.024Z,3.25
2022-12-23T08:51:20.820Z,3.24
2022-12-23T08:52:23.357Z,3.26
2022-12-23T08:53:25.687Z,3.26
2022-12-23T08:54:29.621Z,3.31
2022-12-23T08:55:40.380Z,3.32
2022-12-23T08:56:43.466Z,3.29
2022-12-23T08:57:45.862Z,3.34
2022-12-23T08:58:50.292Z,3.33
2022-12-23T08:59:53.252Z,3.35
2022-12-23T09:00:55.872Z,3.38
2022-12-23T09:01:59.959Z,3.41
2022-12-23T09:03:03.763Z,3.54
2022-12-23T09:04:07.676Z,3.50
2022-12-23T09:05:10.279Z,3.56
2022-12-23T09:06:29.913Z,3.51
2022-12-23T09:07:32.776Z,3.44
2022-12-23T09:08:38.903Z,3.44
2022-12-23T09:09:41.392Z,3.44
2022-12-23T09:10:44.719Z,3.46
2022-12-23T09:11:49.948Z,3.50
2022-12-23T09:12:52.347Z,3.49
2022-12-23T09:13:58.355Z,3.47
2022-12-23T09:15:03.363Z,3.46
2022-12-23T09:16:06.609Z,3.47
2022-12-23T09:17:09.031Z,3.51
2022-12-23T09:18:12.605Z,3.62
2022-12-23T09:19:16.165Z,3.66
2022-12-23T09:20:18.704Z,3.62
2022-12-23T09:21:23.615Z,3.69
2022-12-23T09:22:26.096Z,3.68
2022-12-23T09:23:29.188Z,3.70
2022-12-23T09:24:35.350Z,3.65
2022-12-23T09:25:38.543Z,3.67
2022-12-23T09:26:44.380Z,3.74
2022-12-23T09:27:46.865Z,3.73
2022-12-23T09:28:54.708Z,3.71
2022-12-23T09:30:02.060Z,3.73
2022-12-23T09:31:12.495Z,3.73
2022-12-23T09:32:18.376Z,3.79
2022-12-23T09:33:28.368Z,3.79
2022-12-23T09:34:30.940Z,3.85
2022-12-23T09:35:37.777Z,3.83
2022-12-23T09:36:40.673Z,3.82
2022-12-23T09:37:43.489Z,3.85
2022-12-23T09:38:46.023Z,3.86
2022-12-23T09:39:48.827Z,3.87
2022-12-23T09:40:54.090Z,3.85
2022-12-23T09:42:01.999Z,3.86
2022-12-23T09:43:04.597Z,3.94
2022-12-23T09:44:27.384Z,3.95
2022-12-23T09:45:59.210Z,4.01
2022-12-23T09:47:05.927Z,3.94
2022-12-23T09:48:28.646Z,4.02
2022-12-23T09:49:31.469Z,4.02
2022-12-23T09:50:35.037Z,4.05
2022-12-23T09:51:37.546Z,4.06
2022-12-23T09:52:54.657Z,4.10
2022-12-23T09:54:26.882Z,4.06
2022-12-23T09:55:44.231Z,4.01
2022-12-23T09:57:00.734Z,4.02
2022-12-23T09:58:11.020Z,4.01
2022-12-23T09:59:51.463Z,4.03
2022-12-23T10:01:21.466Z,4.06
2022-12-23T10:02:43.410Z,4.13
2022-12-23T10:04:12.821Z,4.21
2022-12-23T10:05:21.180Z,4.29
2022-12-23T10:06:27.803Z,4.23
2022-12-23T10:08:04.295Z,4.21
2022-12-23T10:09:09.523Z,4.23
2022-12-23T10:10:32.454Z,4.32
2022-12-23T10:11:47.201Z,4.22
2022-12-23T10:12:58.433Z,4.32
2022-12-23T10:14:16.397Z,4.34
2022-12-23T10:15:28.388Z,4.37
2022-12-23T10:16:38.625Z,4.30
2022-12-23T10:17:43.720Z,4.31
2022-12-23T10:19:01.868Z,4.27
2022-12-23T10:20:07.289Z,4.28
2022-12-23T10:21:20.879Z,4.27
2022-12-23T10:22:43.269Z,4.34
2022-12-23T10:23:51.355Z,4.44
2022-12-23T10:24:59.239Z,4.39
2022-12-23T10:26:08.021Z,4.34
2022-12-23T10:27:33.346Z,4.36
2022-12-23T10:28:36.831Z,4.41
2022-12-23T10:29:44.282Z,4.39
2022-12-23T10:32:37.726Z,4.35
2022-12-23T10:33:51.943Z,4.36
2022-12-23T10:35:30.011Z,4.34
2022-12-23T10:36:45.764Z,4.31
2022-12-23T10:37:58.431Z,4.35
2022-12-23T10:39:36.763Z,4.35
2022-12-23T10:40:52.800Z,4.40
2022-12-23T10:42:22.712Z,4.39
2022-12-23T10:44:02.545Z,4.45
2022-12-23T10:45:39.140Z,4.46
2022-12-23T10:47:00.501Z,4.45
2022-12-23T10:48:38.568Z,4.50
2022-12-23T10:49:41.008Z,4.57
2022-12-23T10:51:04.091Z,4.55
2022-12-23T10:52:20.882Z,4.48
2022-12-23T10:53:44.712Z,4.60
2022-12-23T10:54:48.475Z,4.50
2022-12-23T10:55:52.380Z,4.52
2022-12-23T10:56:55.359Z,4.53
2022-12-23T10:59:33.844Z,4.49
2022-12-23T11:00:52.331Z,4.56
2022-12-23T11:02:24.183Z,4.58
2022-12-23T11:03:31.006Z,4.59
2022-12-23T11:04:39.073Z,4.54
2022-12-23T11:05:42.370Z,4.55
2022-12-23T11:06:52.810Z,4.56
2022-12-23T11:08:03.337Z,4.57
2022-12-23T11:09:07.410Z,4.66
2022-12-23T11:10:21.929Z,4.72
2022-12-23T11:11:24.336Z,4.59
2022-12-23T11:12:42.513Z,4.60
2022-12-23T11:13:47.003Z,4.68
2022-12-23T11:14:57.337Z,4.69
2022-12-23T11:16:14.116Z,4.75
2022-12-23T11:17:31.388Z,4.71
2022-12-23T11:18:40.352Z,4.69
2022-12-23T11:19:45.299Z,4.74
2022-12-23T11:21:05.775Z,4.71
2022-12-23T11:22:22.435Z,4.80
2022-12-23T11:23:25.961Z,4.85
2022-12-23T11:24:38.048Z,4.84
2022-12-23T11:25:44.248Z,4.77
2022-12-23T11:27:08.296Z,4.84
2022-12-23T11:28:10.672Z,4.88
2022-12-23T11:29:21.572Z,4.95
2022-12-23T11:30:25.201Z,4.87
2022-12-23T11:31:29.195Z,4.90
2022-12-23T11:32:38.428Z,4.81
2022-12-23T11:33:54.976Z,4.82
2022-12-23T11:34:57.520Z,4.83
2022-12-23T11:36:24.118Z,4.79
2022-12-23T11:37:40.939Z,4.85
2022-12-23T11:38:56.024Z,4.89
2022-12-23T11:39:58.886Z,4.81
2022-12-23T11:41:07.939Z,4.88
2022-12-23T11:42:17.844Z,4.93
2022-12-23T11:43:23.476Z,4.88
2022-12-23T11:44:36.257Z,4.91
2022-12-23T11:45:45.194Z,4.91
2022-12-23T11:46:54.015Z,5.02
2022-12-23T11:48:01.007Z,5.09
2022-12-23T11:49:19.119Z,5.06
2022-12-23T11:50:51.054Z,5.03
2022-12-23T11:52:31.242Z,5.03
2022-12-23T11:53:35.205Z,5.09
2022-12-23T11:55:14.263Z,5.13
2022-12-23T11:56:21.797Z,5.07
2022-12-23T11:57:46.521Z,5.12
2022-12-23T11:59:07.891Z,5.11
2022-12-23T12:00:21.356Z,5.14
2022-12-23T12:01:25.468Z,5.11
2022-12-23T12:02:33.144Z,5.11
2022-12-23T12:03:44.234Z,5.11
2022-12-23T12:04:58.370Z,5.12
2022-12-23T12:06:16.035Z,5.21
2022-12-23T12:07:21.880Z,5.19
2022-12-23T12:08:37.591Z,5.17
2022-12-23T12:09:43.619Z,5.16
2022-12-23T12:10:46.766Z,5.13
2022-12-23T12:11:53.093Z,5.17
2022-12-23T12:12:58.495Z,5.18
2022-12-23T12:14:04.075Z,5.19
2022-12-23T12:15:08.773Z,5.19
2022-12-23T12:17:09.541Z,5.22
2022-12-23T12:18:19.635Z,5.19
2022-12-23T12:19:31.838Z,5.22
2022-12-23T12:20:40.105Z,5.17
2022-12-23T12:21:44.924Z,5.16
2022-12-23T12:22:56.700Z,5.20
2022-12-23T12:24:18.203Z,5.19
2022-12-23T12:25:40.793Z,5.14
2022-12-23T12:26:47.857Z,5.17
2022-12-23T12:28:03.153Z,5.26
2022-12-23T12:29:16.691Z,5.18
2022-12-23T12:30:35.971Z,5.29
2022-12-23T12:31:38.819Z,5.29
2022-12-23T12:33:01.301Z,5.28
2022-12-23T12:34:39.216Z,5.34
2022-12-23T12:36:09.487Z,5.38
2022-12-23T12:37:17.961Z,5.35
2022-12-23T12:38:33.893Z,5.29
2022-12-23T12:39:46.160Z,5.32
2022-12-23T12:40:55.924Z,5.34
2022-12-23T12:42:10.093Z,5.35
2022-12-23T12:43:24.543Z,5.40
2022-12-23T12:44:39.127Z,5.38
2022-12-23T12:45:50.703Z,5.46
2022-12-23T12:47:27.950Z,5.39
2022-12-23T12:49:00.145Z,5.56
2022-12-23T12:50:17.927Z,5.58
2022-12-23T12:51:40.970Z,5.59
2022-12-23T12:52:46.529Z,5.55
2022-12-23T12:54:12.997Z,5.58
2022-12-23T12:55:23.855Z,5.55
2022-12-23T12:56:43.985Z,5.59
2022-12-23T12:57:47.159Z,5.58
2022-12-23T12:58:51.914Z,5.62
2022-12-23T13:00:03.599Z,5.60
2022-12-23T13:01:39.034Z,5.67
2022-12-23T13:03:03.167Z,5.80
2022-12-23T13:04:24.010Z,5.78
2022-12-23T13:05:54.102Z,5.70
2022-12-23T13:07:04.916Z,5.64
2022-12-23T13:08:15.102Z,5.62
2022-12-23T13:09:30.438Z,5.86
2022-12-23T13:10:48.420Z,5.75
2022-12-23T13:12:21.801Z,5.75
2022-12-23T13:13:41.698Z,5.80
2022-12-23T13:14:58.220Z,5.79
2022-12-23T13:16:06.720Z,5.84
2022-12-23T13:17:27.591Z,5.76
2022-12-23T13:18:45.058Z,5.81
2022-12-23T13:19:55.387Z,5.72
2022-12-23T13:21:24.477Z,5.67
2022-12-23T13:22:33.642Z,5.72
2022-12-23T13:23:46.581Z,5.67
2022-12-23T13:25:02.927Z,5.78
2022-12-23T13:26:23.656Z,5.71
2022-12-23T13:27:29.276Z,5.69
2022-12-23T13:29:04.755Z,5.72
2022-12-23T13:30:13.226Z,5.73
2022-12-23T13:31:22.065Z,5.86
2022-12-23T13:32:46.068Z,5.81
2022-12-23T13:34:04.057Z,5.70
2022-12-23T13:35:12.603Z,5.71
2022-12-23T13:36:32.521Z,5.81
2022-12-23T13:37:44.053Z,5.79
2022-12-23T13:38:58.750Z,5.73
2022-12-23T13:40:04.248Z,5.74
2022-12-23T13:41:22.331Z,5.75
2022-12-23T13:42:32.817Z,5.73
2022-12-23T13:43:47.663Z,5.70
2022-12-23T13:44:50.175Z,5.73
2022-12-23T13:45:54.470Z,5.78
2022-12-23T13:47:12.205Z,5.75
2022-12-23T13:48:43.601Z,5.78
2022-12-23T13:49:53.181Z,5.73
2022-12-23T13:51:01.121Z,5.73
2022-12-23T13:52:20.304Z,5.73
2022-12-23T13:54:04.817Z,5.72
2022-12-23T13:55:07.899Z,5.84
2022-12-23T13:56:29.193Z,5.78
2022-12-23T13:57:45.424Z,5.78
2022-12-23T13:58:51.015Z,5.79
2022-12-23T14:00:05.421Z,5.75
2022-12-23T14:01:15.195Z,5.86
2022-12-23T14:02:41.125Z,5.75
2022-12-23T14:03:44.631Z,5.85
2022-12-23T14:04:56.052Z,5.82
2022-12-23T14:05:58.457Z,5.73
2022-12-23T14:07:17.175Z,5.71
2022-12-23T14:08:20.430Z,5.73
2022-12-23T14:09:39.237Z,5.72
2022-12-23T14:11:08.942Z,5.66
2022-12-23T14:12:23.819Z,5.73
2022-12-23T14:13:34.330Z,5.78
2022-12-23T14:14:43.063Z,5.76
2022-12-23T14:16:22.112Z,5.76
2022-12-23T14:17:44.872Z,5.77
2022-12-23T14:19:18.788Z,5.88
2022-12-23T14:20:37.327Z,5.77
2022-12-23T14:22:07.557Z,5.75
2022-12-23T14:23:12.756Z,5.73
2022-12-23T14:24:37.273Z,5.75
2022-12-23T14:25:59.286Z,5.74
2022-12-23T14:27:32.746Z,5.67
2022-12-23T14:28:36.341Z,5.71
2022-12-23T14:29:39.163Z,5.70
2022-12-23T14:30:46.129Z,5.66
2022-12-23T14:31:56.231Z,5.68
2022-12-23T14:33:01.260Z,5.76
2022-12-23T14:34:31.497Z,5.79
2022-12-23T14:35:40.231Z,5.79
2022-12-23T14:37:23.934Z,5.74
2022-12-23T14:38:35.314Z,5.78
2022-12-23T14:39:37.859Z,5.74
2022-12-23T14:40:40.236Z,5.69
2022-12-23T14:41:50.233Z,5.65
2022-12-23T14:43:21.900Z,5.77
2022-12-23T14:44:36.579Z,5.69
2022-12-23T14:45:43.645Z,5.76
2022-12-23T14:46:49.139Z,5.70
2022-12-23T14:47:51.962Z,5.82
2022-12-23T14:50:42.933Z,5.79
2022-12-23T14:51:51.380Z,5.82
2022-12-23T14:53:20.307Z,5.88
2022-12-23T14:54:55.136Z,5.76
2022-12-23T14:56:11.838Z,5.91
2022-12-23T14:57:31.119Z,5.71
2022-12-23T14:58:54.546Z,5.75
2022-12-23T15:00:04.510Z,5.75
2022-12-23T15:01:16.216Z,5.78
2022-12-23T15:02:35.402Z,5.70
2022-12-23T15:03:47.299Z,5.71
2022-12-23T15:05:29.071Z,5.75
2022-12-23T15:06:38.252Z,5.81
2022-12-23T15:07:57.462Z,5.71
2022-12-23T15:09:00.019Z,5.79
2022-12-23T15:10:18.861Z,5.75
2022-12-23T15:11:31.970Z,5.73
2022-12-23T15:12:42.459Z,5.70
2022-12-23T15:13:54.335Z,5.80
2022-12-23T15:15:03.368Z,5.76
2022-12-23T15:16:18.658Z,5.81
2022-12-23T15:17:29.123Z,5.85
2022-12-23T15:18:34.397Z,5.84
2022-12-23T15:19:50.637Z,5.76
2022-12-23T15:21:11.241Z,5.76
2022-12-23T15:22:24.039Z,5.80
2022-12-23T15:23:28.423Z,5.85
2022-12-23T15:24:31.066Z,5.77
2022-12-23T15:25:44.610Z,5.75
2022-12-23T15:27:24.576Z,5.71
2022-12-23T15:29:47.366Z,5.69
2022-12-23T15:30:54.685Z,5.67
2022-12-23T15:32:02.401Z,5.74